Time;durP1;ratioP1;P1;durP2;ratioP2;P2;SDS_P1;SDS_P2;PMS_P1;PMS_P2;Temp;Humidity;BMP_temperature;BMP_pressure;BME280_temperature;BME280_humidity;BME280_pressure;Samples;Min_cycle;Max_cycle;Signal;HPM_P1;HPM_P2
2022/03/07 00:02:10;;;;;;;3.05;1.17;;;21.10;41.90;;;;;;5020456;28;20624;-64
2022/03/07 00:04:36;;;;;;;2.33;1.00;;;21.00;41.90;;;;;;5006528;28;20379;-67
2022/03/07 00:07:01;;;;;;;2.30;1.00;;;21.00;41.90;;;;;;5005436;28;20065;-69
2022/03/07 00:09:27;;;;;;;1.58;1.05;;;21.00;41.90;;;;;;5003021;28;20030;-66
2022/03/07 00:11:53;;;;;;;1.73;0.93;;;21.00;41.90;;;;;;5003518;28;20042;-65
2022/03/07 00:14:19;;;;;;;1.88;1.00;;;21.00;41.90;;;;;;5003416;28;20037;-67
2022/03/07 00:16:46;;;;;;;2.72;1.10;;;21.00;41.90;;;;;;5004221;28;20041;-65
2022/03/07 00:19:12;;;;;;;2.28;1.10;;;21.00;41.90;;;;;;5005965;28;20025;-69
2022/03/07 00:21:38;;;;;;;1.80;1.00;;;20.90;41.90;;;;;;5004061;28;20036;-70
2022/03/07 00:24:07;;;;;;;2.05;1.15;;;20.90;41.90;;;;;;5006105;28;20033;-67
2022/03/07 00:26:33;;;;;;;;;;;20.90;42.00;;;;;;5003658;28;20109;-66
2022/03/07 00:28:59;;;;;;;1.63;0.88;;;20.90;41.90;;;;;;5006586;28;20043;-70
2022/03/07 00:31:24;;;;;;;1.83;1.00;;;20.90;41.90;;;;;;5002131;28;20054;-65
2022/03/07 00:33:51;;;;;;;2.15;0.90;;;20.90;41.90;;;;;;5007620;28;20089;-67
2022/03/07 00:36:18;;;;;;;1.38;0.90;;;20.80;42.00;;;;;;5005786;28;20609;-67
2022/03/07 00:38:43;;;;;;;1.95;1.05;;;20.80;42.00;;;;;;5006066;28;20021;-65
2022/03/07 00:41:09;;;;;;;2.67;1.17;;;20.90;42.00;;;;;;5002556;28;20036;-70
2022/03/07 00:43:35;;;;;;;2.05;1.10;;;20.80;42.00;;;;;;5005394;28;20132;-66
2022/03/07 00:46:01;;;;;;;1.90;0.98;;;20.80;42.00;;;;;;5005024;28;20109;-68
2022/03/07 00:48:27;;;;;;;2.33;1.00;;;20.80;42.00;;;;;;5004601;28;20052;-67
2022/03/07 00:50:53;;;;;;;1.65;0.85;;;20.70;42.00;;;;;;5001602;28;20038;-66
2022/03/07 00:53:21;;;;;;;1.25;0.80;;;20.80;42.10;;;;;;5005395;28;20628;-70
2022/03/07 00:55:47;;;;;;;2.08;1.00;;;20.80;42.10;;;;;;5003508;28;20061;-70
2022/03/07 00:58:14;;;;;;;2.10;1.08;;;20.70;42.00;;;;;;5004132;28;20065;-67
2022/03/07 01:00:40;;;;;;;1.58;0.90;;;20.70;42.00;;;;;;5002218;28;20148;-69
2022/03/07 01:03:07;;;;;;;2.95;1.00;;;20.70;42.10;;;;;;5005885;28;22472;-68
2022/03/07 01:05:33;;;;;;;1.58;0.95;;;20.70;42.10;;;;;;5005242;28;20026;-69
2022/03/07 01:07:59;;;;;;;1.48;0.80;;;20.70;42.10;;;;;;5005142;28;20431;-67
2022/03/07 01:10:25;;;;;;;1.70;0.93;;;20.70;42.70;;;;;;5001599;28;20052;-70
2022/03/07 01:12:51;;;;;;;1.95;1.00;;;20.60;42.10;;;;;;5005461;28;20026;-65
2022/03/07 01:15:17;;;;;;;1.75;1.08;;;20.60;42.10;;;;;;5004317;28;20045;-70
2022/03/07 01:17:43;;;;;;;1.80;0.90;;;20.60;42.20;;;;;;5005002;28;20068;-67
2022/03/07 01:20:10;;;;;;;1.55;0.90;;;20.60;42.20;;;;;;5004852;28;20026;-70
2022/03/07 01:22:38;;;;;;;2.13;1.00;;;20.60;42.20;;;;;;5005491;28;20537;-65
2022/03/07 01:25:05;;;;;;;1.00;0.80;;;20.60;42.20;;;;;;5003557;28;20033;-68
2022/03/07 01:27:32;;;;;;;1.40;1.00;;;20.60;42.20;;;;;;5004953;28;20029;-64
2022/03/07 01:29:57;;;;;;;1.73;0.90;;;20.60;42.20;;;;;;5004636;28;20143;-67
2022/03/07 01:32:23;;;;;;;2.83;1.00;;;20.60;42.20;;;;;;5005904;28;20132;-67
2022/03/07 01:34:49;;;;;;;1.67;1.02;;;20.50;42.10;;;;;;5004979;28;20052;-66
2022/03/07 01:37:15;;;;;;;1.25;0.95;;;20.50;42.20;;;;;;5005780;28;20180;-64
2022/03/07 01:39:40;;;;;;;1.33;0.90;;;20.50;42.20;;;;;;5002083;28;20100;-70
2022/03/07 01:42:06;;;;;;;1.48;0.90;;;20.50;42.80;;;;;;5005545;28;20036;-64
2022/03/07 01:44:32;;;;;;;1.45;0.90;;;20.50;42.20;;;;;;5002539;28;20038;-65
2022/03/07 01:46:58;;;;;;;2.30;1.02;;;20.50;42.20;;;;;;5005866;28;20138;-70
2022/03/07 01:49:25;;;;;;;1.10;0.80;;;20.50;42.30;;;;;;5002685;28;20615;-70
2022/03/07 01:51:52;;;;;;;1.98;1.02;;;20.50;42.20;;;;;;5004939;28;20056;-64
2022/03/07 01:54:19;;;;;;;2.20;0.90;;;20.40;42.20;;;;;;4996358;28;20104;-70
2022/03/07 01:56:46;;;;;;;1.58;0.98;;;20.40;42.20;;;;;;4995831;28;20044;-65
2022/03/07 01:59:13;;;;;;;1.67;0.93;;;20.40;42.20;;;;;;5002347;28;20050;-63
2022/03/07 02:01:40;;;;;;;1.52;1.00;;;20.40;42.20;;;;;;5004775;28;20037;-63
2022/03/07 02:04:06;;;;;;;1.10;0.90;;;20.40;42.30;;;;;;5004375;28;20490;-65
2022/03/07 02:06:32;;;;;;;2.15;0.95;;;20.40;42.30;;;;;;5002906;28;20029;-67
2022/03/07 02:08:58;;;;;;;2.90;0.85;;;20.40;42.30;;;;;;5004024;28;20034;-67
2022/03/07 02:11:25;;;;;;;1.25;0.90;;;20.40;42.30;;;;;;5001869;28;20097;-70
2022/03/07 02:13:51;;;;;;;1.95;0.93;;;20.30;42.20;;;;;;5002901;28;20067;-65
2022/03/07 02:16:18;;;;;;;1.58;0.85;;;20.30;42.20;;;;;;5004453;28;20136;-69
2022/03/07 02:18:47;;;;;;;1.15;0.93;;;20.30;42.20;;;;;;5004235;28;20080;-64
2022/03/07 02:21:15;;;;;;;;;;;20.30;42.20;;;;;;5005122;28;20531;-66
2022/03/07 02:23:41;;;;;;;1.63;0.85;;;20.30;42.30;;;;;;5000961;28;19964;-68
2022/03/07 02:26:18;;;;;;;1.45;0.88;;;20.30;42.30;;;;;;5002548;28;20453;-68
2022/03/07 02:28:45;;;;;;;1.50;0.90;;;20.30;42.30;;;;;;5004376;28;20539;-63
2022/03/07 02:31:15;;;;;;;1.10;0.85;;;20.30;42.30;;;;;;5000548;28;20088;-65
2022/03/07 02:33:41;;;;;;;1.23;0.90;;;20.30;42.30;;;;;;5005275;28;20033;-69
2022/03/07 02:36:06;;;;;;;1.88;0.80;;;20.30;42.40;;;;;;5002813;28;20421;-67
2022/03/07 02:38:32;;;;;;;1.60;0.88;;;20.30;42.30;;;;;;5003383;28;20113;-66
2022/03/07 02:40:58;;;;;;;1.42;0.80;;;20.30;42.30;;;;;;5000892;28;20041;-65
2022/03/07 02:43:23;;;;;;;1.58;0.90;;;20.30;42.40;;;;;;5004268;28;20064;-69
2022/03/07 02:45:51;;;;;;;0.80;0.70;;;20.20;42.30;;;;;;5010303;28;20038;-66
2022/03/07 02:48:17;;;;;;;1.60;0.88;;;20.20;42.30;;;;;;5001245;28;20526;-65
2022/03/07 02:50:42;;;;;;;1.42;1.00;;;20.20;42.30;;;;;;5001049;28;20128;-65
2022/03/07 02:53:08;;;;;;;1.60;0.90;;;20.20;42.30;;;;;;5002487;28;20113;-66
2022/03/07 02:55:34;;;;;;;2.03;1.00;;;20.20;42.40;;;;;;5002524;28;20077;-65
2022/03/07 02:57:59;;;;;;;1.85;1.00;;;20.20;42.30;;;;;;5005246;28;20697;-66
2022/03/07 03:00:26;;;;;;;1.60;1.05;;;20.20;42.40;;;;;;5002125;28;20030;-67
2022/03/07 03:02:51;;;;;;;1.67;0.90;;;20.20;42.40;;;;;;5003028;28;20034;-65
2022/03/07 03:05:17;;;;;;;1.33;0.80;;;20.20;42.40;;;;;;5004445;28;20029;-65
2022/03/07 03:07:43;;;;;;;1.15;0.90;;;20.20;42.40;;;;;;5001865;28;20056;-69
2022/03/07 03:10:09;;;;;;;1.42;0.90;;;20.20;42.40;;;;;;5001349;28;20088;-65
2022/03/07 03:12:35;;;;;;;1.15;0.80;;;20.10;42.30;;;;;;5002749;28;20068;-65
2022/03/07 03:15:01;;;;;;;1.20;0.80;;;20.20;42.40;;;;;;5002726;28;20073;-66
2022/03/07 03:17:26;;;;;;;1.08;0.80;;;20.10;42.30;;;;;;5003595;28;20037;-67
2022/03/07 03:19:53;;;;;;;1.50;0.90;;;20.20;42.40;;;;;;5003569;28;20029;-66
2022/03/07 03:22:19;;;;;;;1.50;0.80;;;20.20;42.40;;;;;;5002408;28;20030;-65
2022/03/07 03:24:46;;;;;;;1.35;0.90;;;20.10;42.40;;;;;;5001278;28;20125;-66
2022/03/07 03:27:12;;;;;;;1.50;0.95;;;20.10;42.40;;;;;;5002180;28;20029;-65
2022/03/07 03:29:38;;;;;;;1.75;0.75;;;20.10;42.40;;;;;;5001673;28;20034;-67
2022/03/07 03:32:04;;;;;;;1.10;0.80;;;20.10;42.40;;;;;;5003157;28;20943;-66
2022/03/07 03:34:29;;;;;;;1.38;0.90;;;20.10;42.40;;;;;;5002716;28;20034;-66
2022/03/07 03:36:55;;;;;;;1.27;0.80;;;20.10;42.40;;;;;;5004339;28;20038;-66
2022/03/07 03:39:20;;;;;;;0.90;0.70;;;20.10;42.40;;;;;;5000902;28;20045;-65
2022/03/07 03:41:46;;;;;;;1.05;0.70;;;20.10;42.50;;;;;;5001035;28;20041;-69
2022/03/07 03:44:12;;;;;;;1.17;0.80;;;20.10;42.40;;;;;;5002988;28;20633;-69
2022/03/07 03:46:37;;;;;;;1.20;0.80;;;20.10;42.40;;;;;;5003643;28;20036;-64
2022/03/07 03:49:04;;;;;;;1.08;0.88;;;20.10;42.40;;;;;;5001841;28;20037;-66
2022/03/07 03:51:30;;;;;;;1.45;0.85;;;20.10;42.50;;;;;;5004041;28;20026;-66
2022/03/07 03:53:55;;;;;;;1.20;0.80;;;20.00;42.40;;;;;;5000511;28;20044;-64
2022/03/07 03:56:21;;;;;;;0.73;0.70;;;20.10;42.50;;;;;;5001820;28;20108;-65
2022/03/07 03:58:47;;;;;;;0.80;0.70;;;20.00;42.40;;;;;;5002167;28;20135;-67
2022/03/07 04:01:12;;;;;;;0.93;0.80;;;20.00;42.50;;;;;;5002650;28;20121;-65
2022/03/07 04:03:39;;;;;;;1.17;0.73;;;20.00;42.40;;;;;;5001201;28;20113;-64
2022/03/07 04:06:06;;;;;;;1.85;0.90;;;20.00;42.40;;;;;;5004009;28;20485;-68
2022/03/07 04:08:32;;;;;;;1.15;0.70;;;20.00;42.40;;;;;;5004289;28;20025;-64
2022/03/07 04:10:58;;;;;;;1.30;0.80;;;20.00;42.90;;;;;;5003368;28;20033;-65
2022/03/07 04:13:24;;;;;;;1.60;0.90;;;20.00;42.40;;;;;;5004343;28;20128;-69
2022/03/07 04:15:49;;;;;;;0.90;0.80;;;20.00;42.40;;;;;;5006848;28;20141;-65
2022/03/07 04:18:15;;;;;;;0.90;0.70;;;20.00;42.50;;;;;;5004650;28;20032;-69
2022/03/07 04:20:42;;;;;;;0.75;0.70;;;20.00;42.40;;;;;;5005287;28;20458;-68
2022/03/07 04:23:08;;;;;;;0.90;0.70;;;20.00;42.40;;;;;;5005611;28;20494;-66
2022/03/07 04:25:33;;;;;;;1.00;0.90;;;20.00;42.50;;;;;;5003318;28;20084;-66
2022/03/07 04:28:00;;;;;;;0.73;0.70;;;20.00;42.50;;;;;;5006948;28;20120;-70
2022/03/07 04:30:27;;;;;;;1.52;0.80;;;19.90;42.50;;;;;;5003375;28;20440;-70
2022/03/07 04:32:52;;;;;;;0.65;0.65;;;19.90;42.50;;;;;;5005840;28;20716;-66
2022/03/07 04:35:18;;;;;;;0.95;0.75;;;19.90;42.40;;;;;;5006795;28;20030;-62
2022/03/07 04:37:44;;;;;;;0.98;0.70;;;19.90;42.40;;;;;;5007970;28;20228;-67
2022/03/07 04:40:16;;;;;;;1.05;0.80;;;19.90;42.50;;;;;;5003515;28;20124;-65
2022/03/07 04:42:43;;;;;;;0.68;0.68;;;19.90;42.40;;;;;;4996075;28;20034;-69
2022/03/07 04:45:11;;;;;;;0.98;0.70;;;19.90;42.40;;;;;;4997563;28;20064;-65
2022/03/07 04:47:37;;;;;;;0.80;0.60;;;19.90;42.40;;;;;;5004752;28;20022;-64
2022/03/07 04:50:04;;;;;;;1.20;0.80;;;19.90;42.40;;;;;;5002105;28;20053;-63
2022/03/07 04:52:30;;;;;;;1.05;0.80;;;19.90;42.50;;;;;;4999931;28;20026;-63
2022/03/07 04:54:55;;;;;;;1.23;0.80;;;19.90;42.40;;;;;;5010911;28;20490;-65
2022/03/07 04:57:21;;;;;;;0.90;0.70;;;19.90;42.50;;;;;;5004648;28;20037;-63
2022/03/07 04:59:47;;;;;;;1.05;0.68;;;19.90;42.60;;;;;;5002592;28;20489;-63
2022/03/07 05:02:13;;;;;;;0.98;0.80;;;19.90;43.00;;;;;;4999683;28;20034;-66
2022/03/07 05:04:40;;;;;;;0.98;0.80;;;19.90;42.40;;;;;;5003458;28;20120;-62
2022/03/07 05:07:06;;;;;;;1.05;0.80;;;19.90;42.50;;;;;;5019779;28;20040;-63
2022/03/07 05:09:32;;;;;;;1.40;0.80;;;19.90;42.60;;;;;;5005789;28;20410;-63
2022/03/07 05:11:58;;;;;;;1.00;0.85;;;19.90;42.50;;;;;;5003269;28;20420;-67
2022/03/07 05:14:24;;;;;;;2.10;1.00;;;19.80;42.40;;;;;;5005812;28;20091;-64
2022/03/07 05:16:50;;;;;;;3.22;1.45;;;19.80;42.50;;;;;;5005476;28;20033;-64
2022/03/07 05:19:15;;;;;;;1.80;1.00;;;19.80;42.50;;;;;;5006890;28;20029;-62
2022/03/07 05:21:41;;;;;;;1.75;0.93;;;19.80;42.60;;;;;;5005030;28;20019;-63
2022/03/07 05:24:07;;;;;;;1.10;0.82;;;19.80;42.60;;;;;;5006273;28;20030;-62
2022/03/07 05:26:33;;;;;;;1.23;0.85;;;19.80;42.70;;;;;;5000374;28;20149;-65
2022/03/07 05:28:58;;;;;;;2.33;0.90;;;19.80;42.70;;;;;;5006010;28;20123;-68
2022/03/07 05:31:24;;;;;;;2.03;1.10;;;19.80;42.70;;;;;;5004422;28;20105;-67
2022/03/07 05:33:50;;;;;;;1.65;1.02;;;19.80;42.80;;;;;;5003970;28;20164;-63
2022/03/07 05:36:15;;;;;;;2.15;1.10;;;19.80;42.80;;;;;;5003683;28;20026;-68
2022/03/07 05:38:41;;;;;;;2.35;1.17;;;19.80;42.80;;;;;;5000386;28;20045;-65
2022/03/07 05:41:07;;;;;;;2.47;1.10;;;19.80;42.90;;;;;;5003530;28;20037;-66
2022/03/07 05:43:34;;;;;;;3.35;1.20;;;19.80;42.90;;;;;;5005505;28;20022;-65
2022/03/07 05:46:00;;;;;;;3.60;1.27;;;19.80;42.90;;;;;;5004410;28;20018;-63
2022/03/07 05:48:26;;;;;;;3.08;1.40;;;19.80;42.90;;;;;;5005915;28;20018;-64
2022/03/07 05:50:51;;;;;;;3.08;1.30;;;19.80;42.90;;;;;;5001720;28;20107;-65
2022/03/07 05:53:21;;;;;;;3.38;1.27;;;19.80;42.90;;;;;;5004592;28;20112;-63
2022/03/07 05:55:48;;;;;;;2.33;1.20;;;19.80;43.00;;;;;;5001139;28;20030;-64
2022/03/07 05:58:14;;;;;;;3.08;1.25;;;19.80;43.00;;;;;;5002635;28;20034;-65
2022/03/07 06:00:39;;;;;;;2.80;1.33;;;19.80;43.00;;;;;;5016011;28;20049;-64
2022/03/07 06:03:05;;;;;;;2.72;1.40;;;19.80;43.00;;;;;;5009259;28;20077;-66
2022/03/07 06:05:31;;;;;;;3.20;1.30;;;19.80;43.00;;;;;;5001328;28;20038;-64
2022/03/07 06:07:57;;;;;;;3.60;1.33;;;19.80;43.00;;;;;;4999541;28;20030;-65
2022/03/07 06:10:23;;;;;;;2.45;1.30;;;19.80;43.00;;;;;;4997650;28;20092;-65
2022/03/07 06:12:48;;;;;;;3.50;1.38;;;19.80;43.00;;;;;;5002802;28;20139;-67
2022/03/07 06:15:14;;;;;;;3.72;1.40;;;19.80;43.50;;;;;;5003389;28;20049;-64
2022/03/07 06:17:52;;;;;;;2.38;1.30;;;19.80;43.00;;;;;;5000155;28;20598;-64
2022/03/07 06:20:19;;;;;;;3.50;1.50;;;19.80;43.00;;;;;;5004211;28;20124;-65
2022/03/07 06:22:44;;;;;;;3.38;1.52;;;19.80;43.00;;;;;;5002281;28;20045;-65
2022/03/07 06:25:10;;;;;;;4.45;1.67;;;19.80;42.90;;;;;;5003131;28;20026;-67
2022/03/07 06:27:35;;;;;;;5.10;2.17;;;19.80;42.90;;;;;;5000765;28;20025;-67
2022/03/07 06:30:01;;;;;;;5.93;2.53;;;19.80;42.90;;;;;;5000202;28;20034;-67
2022/03/07 06:32:27;;;;;;;6.68;2.33;;;19.80;42.90;;;;;;5003038;28;20045;-66
2022/03/07 06:34:53;;;;;;;5.22;2.55;;;19.80;42.90;;;;;;5003497;28;20021;-63
2022/03/07 06:37:18;;;;;;;6.03;2.10;;;19.80;42.90;;;;;;5004189;28;20378;-63
2022/03/07 06:39:44;;;;;;;6.05;2.83;;;19.80;43.00;;;;;;5007338;28;20045;-66
2022/03/07 06:42:10;;;;;;;8.07;3.17;;;19.90;43.70;;;;;;5008231;28;20022;-68
2022/03/07 06:44:39;;;;;;;7.93;3.50;;;20.10;43.70;;;;;;5016686;28;20033;-64
2022/03/07 06:47:09;;;;;;;7.45;3.13;;;20.30;43.60;;;;;;5017180;28;20133;-65
2022/03/07 06:49:35;;;;;;;7.28;3.20;;;20.50;43.30;;;;;;5017012;28;20033;-64
2022/03/07 06:52:01;;;;;;;7.72;3.50;;;20.70;43.20;;;;;;5009187;28;20186;-63
2022/03/07 06:54:26;;;;;;;6.20;3.25;;;20.90;43.00;;;;;;5018594;28;20037;-68
2022/03/07 06:56:52;;;;;;;7.43;3.40;;;21.00;42.80;;;;;;5013625;28;20511;-66
2022/03/07 06:59:18;;;;;;;6.50;3.30;;;21.10;42.60;;;;;;5014364;28;20084;-67
2022/03/07 07:01:43;;;;;;;6.75;3.15;;;21.30;42.30;;;;;;5012256;28;20052;-62
2022/03/07 07:04:09;;;;;;;9.63;3.85;;;21.40;42.30;;;;;;5014962;28;20374;-68
2022/03/07 07:06:34;;;;;;;7.05;3.22;;;21.60;42.00;;;;;;5012652;28;20022;-65
2022/03/07 07:09:00;;;;;;;7.47;3.20;;;21.80;41.80;;;;;;5013815;28;20057;-63
2022/03/07 07:11:26;;;;;;;4.68;2.10;;;21.90;41.60;;;;;;5014684;28;20939;-65
2022/03/07 07:13:51;;;;;;;4.82;2.08;;;21.90;41.40;;;;;;5007103;28;20084;-63
2022/03/07 07:16:17;;;;;;;5.40;2.30;;;21.80;41.40;;;;;;5015481;28;20049;-67
2022/03/07 07:18:43;;;;;;;5.32;2.20;;;21.70;41.50;;;;;;5012645;28;20484;-65
2022/03/07 07:21:09;;;;;;;4.50;2.20;;;21.60;41.50;;;;;;5014634;28;20028;-66
2022/03/07 07:23:35;;;;;;;4.68;2.15;;;21.50;41.50;;;;;;5011835;28;20237;-65
2022/03/07 07:26:01;;;;;;;3.38;2.00;;;21.50;41.50;;;;;;5026080;28;20659;-67
2022/03/07 07:28:27;;;;;;;3.83;2.08;;;21.50;41.50;;;;;;5016984;28;20040;-65
2022/03/07 07:30:52;;;;;;;4.10;2.05;;;21.50;41.50;;;;;;5011811;28;20050;-64
2022/03/07 07:33:18;;;;;;;4.50;1.90;;;21.50;41.50;;;;;;5009658;28;20018;-68
2022/03/07 07:35:44;;;;;;;4.60;2.35;;;21.50;41.50;;;;;;5012174;28;20029;-65
2022/03/07 07:38:09;;;;;;;4.63;2.13;;;21.50;41.50;;;;;;5014108;28;20134;-66
2022/03/07 07:40:35;;;;;;;4.40;2.03;;;21.50;41.40;;;;;;5012482;28;20129;-65
2022/03/07 07:43:01;;;;;;;4.68;1.95;;;21.50;41.40;;;;;;5015654;28;20065;-68
2022/03/07 07:45:27;;;;;;;4.40;2.17;;;21.50;41.50;;;;;;5018902;28;20127;-65
2022/03/07 07:47:52;;;;;;;6.88;2.58;;;21.50;41.90;;;;;;5006300;28;20133;-68
2022/03/07 07:50:19;;;;;;;5.05;2.60;;;21.60;41.60;;;;;;5007549;28;20060;-65
2022/03/07 07:52:45;;;;;;;4.40;2.13;;;21.60;41.10;;;;;;5006800;28;20038;-65
2022/03/07 07:55:11;;;;;;;4.97;2.17;;;21.60;41.00;;;;;;5010058;28;20159;-63
2022/03/07 07:57:39;;;;;;;4.07;2.28;;;21.60;41.30;;;;;;5017386;28;20030;-67
2022/03/07 08:00:07;;;;;;;3.30;1.70;;;21.60;41.50;;;;;;5017933;28;20366;-65
2022/03/07 08:02:33;;;;;;;3.65;1.75;;;21.70;41.70;;;;;;5016018;28;20497;-64
2022/03/07 08:04:59;;;;;;;3.90;2.05;;;21.70;41.90;;;;;;5007640;28;20112;-65
2022/03/07 08:07:25;;;;;;;4.50;1.80;;;21.70;42.00;;;;;;5013974;28;20141;-62
2022/03/07 08:09:51;;;;;;;3.00;1.80;;;21.80;42.20;;;;;;5013750;28;20022;-66
2022/03/07 08:12:18;;;;;;;3.05;1.63;;;21.70;42.20;;;;;;5007136;28;20052;-67
2022/03/07 08:14:45;;;;;;;4.18;1.60;;;21.80;42.60;;;;;;5005162;28;20037;-63
2022/03/07 08:17:11;;;;;;;3.40;1.65;;;21.80;42.90;;;;;;5005569;28;20042;-64
2022/03/07 08:19:38;;;;;;;4.32;1.67;;;21.90;43.00;;;;;;5005886;28;20030;-63
2022/03/07 08:22:04;;;;;;;3.97;1.80;;;21.90;43.00;;;;;;5005281;28;20018;-64
2022/03/07 08:24:30;;;;;;;4.10;1.58;;;21.90;43.10;;;;;;5002930;28;20153;-65
2022/03/07 08:26:55;;;;;;;3.63;1.58;;;22.00;43.20;;;;;;5001856;28;20089;-64
2022/03/07 08:29:21;;;;;;;2.85;1.45;;;22.00;43.40;;;;;;5007212;28;20030;-63
2022/03/07 08:31:46;;;;;;;3.33;1.70;;;22.00;43.50;;;;;;5003050;28;20046;-64
2022/03/07 08:34:12;;;;;;;3.25;1.50;;;22.00;43.60;;;;;;5005496;28;20036;-65
2022/03/07 08:36:38;;;;;;;3.35;1.40;;;22.10;43.60;;;;;;5004855;28;20025;-61
2022/03/07 08:39:04;;;;;;;3.53;1.60;;;22.10;44.10;;;;;;5000587;28;20030;-64
2022/03/07 08:41:29;;;;;;;2.78;1.40;;;22.10;43.40;;;;;;5003060;28;20111;-64
2022/03/07 08:43:55;;;;;;;3.17;1.45;;;22.10;43.50;;;;;;5004370;28;20094;-61
2022/03/07 08:46:22;;;;;;;3.78;1.45;;;22.10;43.80;;;;;;5006005;28;20032;-62
2022/03/07 08:48:47;;;;;;;4.22;1.60;;;22.10;43.80;;;;;;5005139;28;20026;-67
2022/03/07 08:51:13;;;;;;;3.63;1.88;;;22.20;43.70;;;;;;5004671;28;20037;-66
2022/03/07 08:53:39;;;;;;;3.00;1.70;;;22.20;44.10;;;;;;5002418;28;20451;-65
2022/03/07 08:56:05;;;;;;;2.80;1.42;;;22.20;44.30;;;;;;5006169;28;20018;-64
2022/03/07 08:58:30;;;;;;;4.30;1.60;;;22.30;44.40;;;;;;5004531;28;20037;-66
2022/03/07 09:00:56;;;;;;;3.33;1.45;;;22.30;44.40;;;;;;5004155;28;20046;-65
2022/03/07 09:03:22;;;;;;;2.95;1.50;;;22.40;44.40;;;;;;5006336;28;20033;-64
2022/03/07 09:05:47;;;;;;;2.70;1.30;;;22.40;45.10;;;;;;5004645;28;20121;-65
2022/03/07 09:08:13;;;;;;;2.75;1.60;;;22.40;44.50;;;;;;5004223;28;20608;-64
2022/03/07 09:10:39;;;;;;;3.60;1.30;;;22.40;44.60;;;;;;5002258;28;20440;-63
2022/03/07 09:13:05;;;;;;;4.22;1.42;;;22.50;44.80;;;;;;5003935;28;20033;-67
2022/03/07 09:15:30;;;;;;;3.38;1.30;;;22.50;44.70;;;;;;5002985;28;20018;-64
2022/03/07 09:17:56;;;;;;;2.97;1.42;;;22.50;45.10;;;;;;5005755;28;20037;-67
2022/03/07 09:20:22;;;;;;;10.77;3.97;;;22.50;44.90;;;;;;5005009;28;20418;-64
2022/03/07 09:22:47;;;;;;;9.48;3.97;;;22.60;45.00;;;;;;5006037;28;20045;-64
2022/03/07 09:25:14;;;;;;;7.25;3.05;;;22.60;45.00;;;;;;5004793;28;20026;-61
2022/03/07 09:27:42;;;;;;;7.60;3.28;;;22.70;45.20;;;;;;4999070;28;20040;-64
2022/03/07 09:30:09;;;;;;;8.68;2.88;;;22.70;45.30;;;;;;4998363;28;20109;-63
2022/03/07 09:32:35;;;;;;;5.80;2.40;;;22.70;45.40;;;;;;5002565;28;20572;-62
2022/03/07 09:35:00;;;;;;;5.18;2.45;;;22.80;46.10;;;;;;5003469;28;20037;-63
2022/03/07 09:37:26;;;;;;;6.72;2.30;;;22.70;45.50;;;;;;5011214;28;20045;-65
2022/03/07 09:39:52;;;;;;;5.70;2.38;;;22.70;45.60;;;;;;5000674;28;20042;-62
2022/03/07 09:42:17;;;;;;;5.70;2.38;;;22.70;45.70;;;;;;5003573;28;20149;-63
2022/03/07 09:44:43;;;;;;;5.30;2.50;;;22.70;46.10;;;;;;5002526;28;20042;-64
2022/03/07 09:47:09;;;;;;;5.10;2.10;;;22.80;46.20;;;;;;5005886;28;20037;-62
2022/03/07 09:49:35;;;;;;;5.55;2.40;;;22.80;46.30;;;;;;4997531;28;20030;-62
2022/03/07 09:52:01;;;;;;;4.97;2.20;;;22.90;46.50;;;;;;5003722;28;20046;-68
2022/03/07 09:54:26;;;;;;;6.65;2.60;;;22.90;47.00;;;;;;4999554;28;20041;-62
2022/03/07 09:56:53;;;;;;;4.85;2.47;;;23.00;47.20;;;;;;5003170;28;20758;-63
2022/03/07 09:59:20;;;;;;;4.43;2.13;;;23.00;47.50;;;;;;5004772;28;20037;-63
2022/03/07 10:01:59;;;;;;;5.40;2.17;;;23.00;47.70;;;;;;5005130;28;20124;-68
2022/03/07 10:04:25;;;;;;;4.85;2.35;;;23.00;48.50;;;;;;5002313;28;20513;-64
2022/03/07 10:06:51;;;;;;;5.13;2.33;;;23.00;48.00;;;;;;5006265;28;20030;-63
2022/03/07 10:09:22;;;;;;;4.88;2.38;;;23.10;48.50;;;;;;5001706;28;20033;-64
2022/03/07 10:11:56;;;;;;;5.22;2.20;;;23.10;48.40;;;;;;5014360;28;20161;-61
2022/03/07 10:14:45;;;;;;;3.88;1.75;;;23.10;48.40;;;;;;4998408;28;20057;-63
2022/03/07 10:17:27;;;;;;;5.03;1.98;;;23.20;48.60;;;;;;5000799;28;20046;-64
2022/03/07 10:19:55;;;;;;;3.83;1.70;;;23.10;48.60;;;;;;5002944;28;20046;-67
2022/03/07 10:22:23;;;;;;;5.45;2.05;;;23.10;48.50;;;;;;5002142;28;20029;-62
2022/03/07 10:25:07;;;;;;;4.18;1.90;;;23.20;48.40;;;;;;5002770;28;20032;-61
2022/03/07 10:27:39;;;;;;;3.58;1.90;;;23.20;48.30;;;;;;5001586;28;20032;-63
2022/03/07 10:30:10;;;;;;;3.20;1.63;;;23.20;48.10;;;;;;5003070;28;20034;-63
2022/03/07 10:32:36;;;;;;;4.93;2.13;;;23.30;48.00;;;;;;5003225;28;20041;-61
2022/03/07 10:35:01;;;;;;;3.78;1.90;;;23.30;47.90;;;;;;5006253;28;20038;-62
2022/03/07 10:37:38;;;;;;;3.53;1.75;;;23.30;47.80;;;;;;5005846;28;20017;-63
2022/03/07 10:40:16;;;;;;;3.70;1.88;;;23.40;47.70;;;;;;5001043;28;20077;-64
2022/03/07 10:42:46;;;;;;;3.28;1.83;;;23.40;47.60;;;;;;5002484;28;20029;-64
2022/03/07 10:45:12;;;;;;;3.17;1.83;;;23.40;47.50;;;;;;5001723;28;20544;-62
2022/03/07 10:47:38;;;;;;;4.63;1.85;;;23.40;47.50;;;;;;5004250;28;20091;-62
2022/03/07 10:50:05;;;;;;;2.85;1.55;;;23.40;47.50;;;;;;4996062;28;20030;-64
2022/03/07 10:52:41;;;;;;;4.10;1.75;;;23.50;47.50;;;;;;4999919;28;20042;-64
2022/03/07 10:55:09;;;;;;;4.40;1.90;;;23.50;47.40;;;;;;4997535;28;20163;-66
2022/03/07 10:57:38;;;;;;;3.47;1.63;;;23.50;47.40;;;;;;4999837;28;20608;-64
2022/03/07 11:00:17;;;;;;;3.03;1.80;;;23.50;47.20;;;;;;4998725;28;20027;-62
2022/03/07 11:02:44;;;;;;;3.33;1.80;;;23.60;47.30;;;;;;5003600;28;20277;-64
2022/03/07 11:05:12;;;;;;;3.10;1.52;;;23.60;47.20;;;;;;5004628;28;20022;-64
2022/03/07 11:07:47;;;;;;;3.47;1.80;;;23.60;47.10;;;;;;5001089;28;20397;-62
2022/03/07 11:10:14;;;;;;;3.17;1.80;;;23.60;47.20;;;;;;5016439;28;20526;-64
2022/03/07 11:12:40;;;;;;;2.92;1.58;;;23.70;47.30;;;;;;5002221;28;20101;-66
2022/03/07 11:15:08;;;;;;;3.80;1.80;;;23.70;47.30;;;;;;4999688;28;20026;-63
2022/03/07 11:17:42;;;;;;;3.72;2.00;;;23.70;47.30;;;;;;5003293;28;20042;-63
2022/03/07 11:20:10;;;;;;;3.65;2.03;;;23.80;47.30;;;;;;5007394;28;20048;-68
2022/03/07 11:22:36;;;;;;;2.75;1.55;;;23.80;47.30;;;;;;5007306;28;20034;-60
2022/03/07 11:25:05;;;;;;;3.05;1.65;;;23.80;47.20;;;;;;5007797;28;20109;-65
2022/03/07 11:27:32;;;;;;;3.63;1.80;;;23.90;47.30;;;;;;5006912;28;20045;-65
2022/03/07 11:29:58;;;;;;;3.10;1.70;;;23.90;47.20;;;;;;5003645;28;20042;-63
2022/03/07 11:32:24;;;;;;;3.08;1.70;;;23.90;47.20;;;;;;5007926;28;20101;-61
2022/03/07 11:34:59;;;;;;;3.65;1.70;;;23.90;47.10;;;;;;5007042;28;20033;-67
2022/03/07 11:37:30;;;;;;;2.58;1.50;;;23.90;47.00;;;;;;5007636;28;20034;-63
2022/03/07 11:39:58;;;;;;;3.10;1.60;;;23.90;46.80;;;;;;5005878;28;20047;-63
2022/03/07 11:42:36;;;;;;;2.50;1.50;;;23.90;46.80;;;;;;5004655;28;20045;-61
2022/03/07 11:45:10;;;;;;;2.28;1.40;;;23.90;46.80;;;;;;5004191;28;20135;-62
2022/03/07 11:47:40;;;;;;;2.80;1.50;;;23.90;46.80;;;;;;5005898;28;20105;-63
2022/03/07 11:50:07;;;;;;;2.97;1.38;;;24.00;46.70;;;;;;5005419;28;20402;-63
2022/03/07 11:52:33;;;;;;;2.53;1.50;;;24.00;46.70;;;;;;5005799;28;20105;-66
2022/03/07 11:55:01;;;;;;;2.63;1.50;;;24.00;46.70;;;;;;5004068;28;20109;-65
2022/03/07 11:57:43;;;;;;;2.33;1.23;;;24.00;46.60;;;;;;5003155;28;20026;-66
2022/03/07 12:00:23;;;;;;;2.75;1.65;;;24.10;46.70;;;;;;5004174;28;20124;-68
2022/03/07 12:02:52;;;;;;;4.30;2.13;;;24.10;44.30;;;;;;5008332;28;20331;-61
2022/03/07 12:05:28;;;;;;;3.08;1.55;;;23.90;40.60;;;;;;5020492;28;20056;-64
2022/03/07 12:08:11;;;;;;;2.90;1.40;;;23.90;40.50;;;;;;5009035;28;20466;-68
2022/03/07 12:10:39;;;;;;;2.10;1.20;;;23.80;40.50;;;;;;5004267;28;20033;-70
2022/03/07 12:13:10;;;;;;;2.75;1.48;;;23.80;40.50;;;;;;5003421;28;20034;-66
2022/03/07 12:15:49;;;;;;;3.17;1.52;;;23.70;40.60;;;;;;5016171;28;20129;-67
2022/03/07 12:18:16;;;;;;;2.33;1.25;;;23.70;40.60;;;;;;5019562;28;20030;-66
2022/03/07 12:20:54;;;;;;;2.72;1.60;;;23.60;40.70;;;;;;5017622;28;20145;-65
2022/03/07 12:23:23;;;;;;;2.55;1.33;;;23.60;41.10;;;;;;5006185;28;20032;-67
2022/03/07 12:26:03;;;;;;;1.70;1.10;;;23.60;40.60;;;;;;5003638;28;20201;-67
2022/03/07 12:28:29;;;;;;;;;;;23.60;40.40;;;;;;5003682;28;20168;-69
2022/03/07 12:30:55;;;;;;;2.63;1.30;;;23.60;40.80;;;;;;5000796;28;20047;-67
2022/03/07 12:33:21;;;;;;;2.03;1.23;;;23.60;40.40;;;;;;5005655;28;20121;-67
2022/03/07 12:35:46;;;;;;;2.95;1.30;;;23.70;40.40;;;;;;5006074;28;20113;-69
2022/03/07 12:38:12;;;;;;;2.33;1.40;;;23.60;40.40;;;;;;5004795;28;20033;-67
2022/03/07 12:40:38;;;;;;;2.53;1.50;;;23.60;40.40;;;;;;5004929;28;20037;-66
2022/03/07 12:43:05;;;;;;;2.28;1.20;;;23.70;40.40;;;;;;5001235;28;20037;-68
2022/03/07 12:45:33;;;;;;;1.80;1.05;;;23.60;40.40;;;;;;5003287;28;20030;-67
2022/03/07 12:48:01;;;;;;;2.42;1.27;;;23.70;40.40;;;;;;5006994;28;20030;-62